createdAt,value
2018-12-25T00:00:06.462Z,53.87
2018-12-25T00:01:06.442Z,53.68
2018-12-25T00:02:06.420Z,53.87
2018-12-25T00:03:06.406Z,53.96
2018-12-25T00:04:06.388Z,53.68
2018-12-25T00:05:06.115Z,53.96
2018-12-25T00:06:06.347Z,53.3
2018-12-25T00:07:06.328Z,53.3
2018-12-25T00:08:06.308Z,53.2
2018-12-25T00:09:06.287Z,53.11
2018-12-25T00:10:06.270Z,53.11
2018-12-25T00:11:06.251Z,53.11
2018-12-25T00:12:06.235Z,53.39
2018-12-25T00:13:06.209Z,52.83
2018-12-25T00:14:06.308Z,52.64
2018-12-25T00:15:06.184Z,53.11
2018-12-25T00:16:06.154Z,52.73
2018-12-25T00:17:06.135Z,53.2
2018-12-25T00:18:06.114Z,52.83
2018-12-25T00:19:08.873Z,52.83
2018-12-25T00:20:06.075Z,53.39
2018-12-25T00:21:06.060Z,53.77
2018-12-25T00:22:06.034Z,53.77
2018-12-25T00:23:06.049Z,54.15
2018-12-25T00:24:06.000Z,53.58
2018-12-25T00:25:05.982Z,53.39
2018-12-25T00:26:05.764Z,53.11
2018-12-25T00:27:05.939Z,53.02
2018-12-25T00:28:05.919Z,52.07
2018-12-25T00:29:05.902Z,51.5
2018-12-25T00:30:05.880Z,51.03
2018-12-25T00:31:05.864Z,51.03
2018-12-25T00:32:05.929Z,50.94
2018-12-25T00:33:05.832Z,50.37
2018-12-25T00:34:05.803Z,50.09
2018-12-25T00:35:05.780Z,49.62
2018-12-25T00:36:05.775Z,48.86
2018-12-25T00:37:05.747Z,48.57
2018-12-25T00:38:05.730Z,48.29
2018-12-25T00:39:05.457Z,48.01
2018-12-25T00:40:05.686Z,47.25
2018-12-25T00:41:05.670Z,46.78
2018-12-25T00:42:05.403Z,46.69
2018-12-25T00:43:05.635Z,46.12
2018-12-25T00:44:05.614Z,45.74
2018-12-25T00:45:05.591Z,45.45
2018-12-25T00:46:05.573Z,45.27
2018-12-25T00:47:05.559Z,44.79
2018-12-25T00:48:05.288Z,44.23
2018-12-25T00:49:05.517Z,44.32
2018-12-25T00:50:05.498Z,43.95
2018-12-25T00:51:05.480Z,43.57
2018-12-25T00:52:05.456Z,43.28
2018-12-25T00:53:05.435Z,43.19
2018-12-25T00:54:05.169Z,42.34
2018-12-25T00:55:05.403Z,42.24
2018-12-25T00:56:05.135Z,41.67
2018-12-25T00:57:05.114Z,41.39
2018-12-25T00:58:05.380Z,41.2
2018-12-25T00:59:05.320Z,41.2
2018-12-25T01:00:05.306Z,40.45
2018-12-25T01:01:05.282Z,40.54
2018-12-25T01:02:05.265Z,39.69
2018-12-25T01:03:05.246Z,39.59
2018-12-25T01:04:05.224Z,39.12
2018-12-25T01:05:04.957Z,38.84
2018-12-25T01:06:05.190Z,38.37
2018-12-25T01:07:05.170Z,38.18
2018-12-25T01:08:05.146Z,37.71
2018-12-25T01:09:04.879Z,37.71
2018-12-25T01:10:05.111Z,37.61
2018-12-25T01:11:05.094Z,37.23
2018-12-25T01:12:05.069Z,37.33
2018-12-25T01:13:05.054Z,36.85
2018-12-25T01:14:05.036Z,36.47
2018-12-25T01:15:05.010Z,36.29
2018-12-25T01:16:04.998Z,36.29
2018-12-25T01:17:04.978Z,35.72
2018-12-25T01:18:04.958Z,35.63
2018-12-25T01:19:04.938Z,35.25
2018-12-25T01:20:04.918Z,35.16
2018-12-25T01:21:04.900Z,34.68
2018-12-25T01:22:04.630Z,34.3
2018-12-25T01:23:04.858Z,34.21
2018-12-25T01:24:04.593Z,34.3
2018-12-25T01:25:04.824Z,34.11
2018-12-25T01:26:04.806Z,33.73
2018-12-25T01:27:04.780Z,33.26
2018-12-25T01:28:04.762Z,33.17
2018-12-25T01:29:04.748Z,32.89
2018-12-25T01:30:04.729Z,32.98
2018-12-25T01:31:04.705Z,32.42
2018-12-25T01:32:04.684Z,32.51
2018-12-25T01:33:04.666Z,32.32
2018-12-25T01:34:04.649Z,32.04
2018-12-25T01:35:04.627Z,31.94
2018-12-25T01:36:04.612Z,31.85
2018-12-25T01:37:04.587Z,31.56
2018-12-25T01:38:04.578Z,31.37
2018-12-25T01:39:04.552Z,31.75
2018-12-25T01:40:04.537Z,31.66
2018-12-25T01:41:04.516Z,31.85
2018-12-25T01:42:04.494Z,31.85
2018-12-25T01:43:04.476Z,31.37
2018-12-25T01:44:04.455Z,31.47
2018-12-25T01:45:04.504Z,30.99
2018-12-25T01:46:04.423Z,30.9
2018-12-25T01:47:04.411Z,30.99
2018-12-25T01:48:04.379Z,31.09
2018-12-25T01:49:04.359Z,30.99
2018-12-25T01:50:04.355Z,30.99
2018-12-25T01:51:04.330Z,31.09
2018-12-25T01:52:04.057Z,30.99
2018-12-25T01:53:04.284Z,31.09
2018-12-25T01:54:04.290Z,30.8
2018-12-25T01:55:04.254Z,30.24
2018-12-25T01:56:04.224Z,30.43
2018-12-25T01:57:04.204Z,30.15
2018-12-25T01:58:04.189Z,30.33
2018-12-25T01:59:04.169Z,29.96
2018-12-25T02:00:04.152Z,29.86
2018-12-25T02:01:04.135Z,29.49
2018-12-25T02:02:04.115Z,29.58
2018-12-25T02:03:04.094Z,29.49
2018-12-25T02:04:04.079Z,29.68
2018-12-25T02:05:04.055Z,29.96
2018-12-25T02:06:04.036Z,29.77
2018-12-25T02:07:04.166Z,30.05
2018-12-25T02:08:03.998Z,30.33
2018-12-25T02:09:03.977Z,30.52
2018-12-25T02:10:03.958Z,30.24
2018-12-25T02:11:04.546Z,30.15
2018-12-25T02:12:03.923Z,30.15
2018-12-25T02:13:03.902Z,30.05
2018-12-25T02:14:03.887Z,30.24
2018-12-25T02:15:04.011Z,30.52
2018-12-25T02:16:03.848Z,30.71
2018-12-25T02:17:03.823Z,31.09
2018-12-25T02:18:03.807Z,31.28
2018-12-25T02:19:03.790Z,31.56
2018-12-25T02:20:03.776Z,31.28
2018-12-25T02:21:03.754Z,31.66
2018-12-25T02:22:03.732Z,31.75
2018-12-25T02:23:03.719Z,32.04
2018-12-25T02:24:03.698Z,31.94
2018-12-25T02:25:03.676Z,32.32
2018-12-25T02:26:03.663Z,32.6
2018-12-25T02:27:03.890Z,32.51
2018-12-25T02:28:03.618Z,32.79
2018-12-25T02:29:03.596Z,32.98
2018-12-25T02:30:03.587Z,33.26
2018-12-25T02:31:03.613Z,33.26
2018-12-25T02:32:03.545Z,33.54
2018-12-25T02:33:03.524Z,34.21
2018-12-25T02:34:03.511Z,34.3
2018-12-25T02:35:03.499Z,35.35
2018-12-25T02:36:03.472Z,35.63
2018-12-25T02:37:03.446Z,36.19
2018-12-25T02:38:03.427Z,36.57
2018-12-25T02:39:03.405Z,36.95
2018-12-25T02:40:03.389Z,37.33
2018-12-25T02:41:03.373Z,37.42
2018-12-25T02:42:03.369Z,37.52
2018-12-25T02:43:03.335Z,37.8
2018-12-25T02:44:03.318Z,37.71
2018-12-25T02:45:03.298Z,37.42
2018-12-25T02:46:03.284Z,37.52
2018-12-25T02:47:03.272Z,37.42
2018-12-25T02:48:03.238Z,37.14
2018-12-25T02:49:03.227Z,36.95
2018-12-25T02:50:03.208Z,36.76
2018-12-25T02:51:03.187Z,36.29
2018-12-25T02:52:02.924Z,36.47
2018-12-25T02:53:02.904Z,36.38
2018-12-25T02:54:03.124Z,36.85
2018-12-25T02:55:03.115Z,36.66
2018-12-25T02:56:02.848Z,36.85
2018-12-25T02:57:03.094Z,36.47
2018-12-25T02:58:03.057Z,36
2018-12-25T02:59:02.790Z,35.53
2018-12-25T03:00:02.943Z,35.53
2018-12-25T03:01:02.993Z,35.25
2018-12-25T03:02:02.978Z,35.35
2018-12-25T03:03:02.707Z,35.06
2018-12-25T03:04:02.940Z,34.21
2018-12-25T03:05:02.921Z,33.92
2018-12-25T03:06:02.902Z,33.26
2018-12-25T03:07:02.882Z,32.98
2018-12-25T03:08:02.865Z,32.42
2018-12-25T03:09:02.845Z,32.04
2018-12-25T03:10:02.825Z,31.85
2018-12-25T03:11:02.804Z,31.18
2018-12-25T03:12:02.778Z,31.47
2018-12-25T03:13:02.762Z,31.66
2018-12-25T03:14:02.744Z,31.56
2018-12-25T03:15:02.751Z,31.56
2018-12-25T03:16:02.710Z,31.18
2018-12-25T03:17:02.691Z,31.28
2018-12-25T03:18:02.674Z,31.09
2018-12-25T03:19:02.651Z,30.99
2018-12-25T03:20:02.789Z,30.8
2018-12-25T03:21:02.617Z,30.71
2018-12-25T03:22:02.344Z,30.8
2018-12-25T03:23:02.574Z,30.24
2018-12-25T03:24:02.555Z,30.24
2018-12-25T03:25:02.711Z,30.24
2018-12-25T03:26:02.606Z,30.24
2018-12-25T03:27:02.503Z,30.24
2018-12-25T03:28:02.480Z,30.52
2018-12-25T03:29:02.459Z,31.09
2018-12-25T03:30:02.622Z,31.09
2018-12-25T03:31:02.448Z,31.18
2018-12-25T03:32:02.422Z,30.9
2018-12-25T03:33:02.421Z,31.47
2018-12-25T03:34:02.122Z,31.18
2018-12-25T03:35:02.345Z,31.85
2018-12-25T03:36:02.330Z,31.66
2018-12-25T03:37:02.311Z,32.13
2018-12-25T03:38:02.290Z,32.04
2018-12-25T03:39:02.277Z,32.13
2018-12-25T03:40:02.256Z,31.96
2018-12-25T03:41:02.244Z,31.75
2018-12-25T03:42:02.212Z,31.96
2018-12-25T03:43:02.344Z,32.34
2018-12-25T03:44:02.172Z,32.7
2018-12-25T03:45:02.160Z,33.56
2018-12-25T03:46:02.140Z,33.83
2018-12-25T03:47:02.117Z,33.83
2018-12-25T03:48:02.096Z,33.83
2018-12-25T03:49:02.077Z,33.83
2018-12-25T03:50:12.955Z,33.73
2018-12-25T03:51:02.041Z,33.92
2018-12-25T03:52:02.025Z,33.54
2018-12-25T03:53:02.008Z,33.36
2018-12-25T03:54:01.984Z,33.37
2018-12-25T03:55:01.981Z,33.07
2018-12-25T03:56:01.952Z,32.71
2018-12-25T03:57:01.932Z,32.98
2018-12-25T03:58:01.909Z,32.98
2018-12-25T03:59:01.898Z,32.81
2018-12-25T04:00:01.869Z,32.81
2018-12-25T04:01:01.609Z,32.71
2018-12-25T04:02:01.836Z,32.43
2018-12-25T04:03:01.816Z,32.04
2018-12-25T04:04:01.827Z,32.32
2018-12-25T04:05:01.539Z,32.34
2018-12-25T04:06:01.759Z,32.32
2018-12-25T04:07:01.737Z,32.53
2018-12-25T04:08:01.485Z,32.34
2018-12-25T04:09:01.718Z,32.23
2018-12-25T04:10:01.686Z,32.34
2018-12-25T04:11:01.669Z,32.13
2018-12-25T04:12:01.652Z,32.51
2018-12-25T04:13:01.631Z,32.34
2018-12-25T04:14:01.616Z,32.13
2018-12-25T04:15:01.587Z,31.66
2018-12-25T04:16:01.573Z,31.28
2018-12-25T04:17:01.551Z,31.1
2018-12-25T04:18:01.283Z,31.1
2018-12-25T04:19:01.520Z,30.73
2018-12-25T04:20:01.506Z,29.96
2018-12-25T04:21:01.474Z,30.15
2018-12-25T04:22:01.462Z,30.33
2018-12-25T04:23:01.439Z,30.16
2018-12-25T04:24:01.427Z,30.8
2018-12-25T04:25:01.398Z,30.63
2018-12-25T04:26:01.378Z,30.71
2018-12-25T04:27:01.368Z,30.16
2018-12-25T04:28:01.341Z,30.24
2018-12-25T04:29:01.326Z,30.15
2018-12-25T04:30:01.305Z,30.24
2018-12-25T04:31:01.290Z,30.24
2018-12-25T04:32:01.268Z,30.26
2018-12-25T04:33:01.251Z,30.71
2018-12-25T04:34:00.983Z,30.05
2018-12-25T04:35:01.211Z,30.35
2018-12-25T04:36:00.939Z,30.07
2018-12-25T04:37:01.174Z,30.54
2018-12-25T04:38:01.151Z,30.71
2018-12-25T04:39:01.135Z,31.1
2018-12-25T04:40:01.110Z,31.09
2018-12-25T04:41:01.095Z,31.39
2018-12-25T04:42:01.074Z,31.86
2018-12-25T04:43:01.058Z,31.94
2018-12-25T04:44:01.040Z,32.13
2018-12-25T04:45:00.781Z,32.42
2018-12-25T04:46:01.004Z,32.62
2018-12-25T04:47:00.985Z,32.7
2018-12-25T04:48:00.964Z,33
2018-12-25T04:49:00.948Z,34.13
2018-12-25T04:50:00.926Z,34.99
2018-12-25T04:51:00.904Z,35.63
2018-12-25T04:52:00.888Z,36.21
2018-12-25T04:53:00.873Z,36.38
2018-12-25T04:54:00.853Z,37.44
2018-12-25T04:55:00.837Z,38.28
2018-12-25T04:56:00.818Z,38.76
2018-12-25T04:57:00.806Z,39.43
2018-12-25T04:58:00.781Z,39.88
2018-12-25T04:59:00.763Z,40.19
2018-12-25T05:00:00.743Z,40.56
2018-12-25T05:01:00.723Z,40.66
2018-12-25T05:02:00.709Z,41.13
2018-12-25T05:03:00.681Z,40.84
2018-12-25T05:04:00.660Z,41.32
2018-12-25T05:05:00.646Z,42.45
2018-12-25T05:06:00.628Z,42.9
2018-12-25T05:07:00.605Z,43.77
2018-12-25T05:08:00.593Z,44.72
2018-12-25T05:09:00.570Z,45.2
2018-12-25T05:10:00.555Z,46.04
2018-12-25T05:11:00.536Z,46.42
2018-12-25T05:12:00.512Z,46.61
2018-12-25T05:13:00.507Z,46.9
2018-12-25T05:14:00.474Z,47.18
2018-12-25T05:15:00.458Z,47.09
2018-12-25T05:16:00.435Z,46.99
2018-12-25T05:17:00.415Z,47.18
2018-12-25T05:18:00.150Z,46.71
2018-12-25T05:19:00.130Z,46.8
2018-12-25T05:20:00.157Z,46.61
2018-12-25T05:21:00.350Z,46.33
2018-12-25T05:22:00.328Z,46.14
2018-12-25T05:23:00.309Z,46.42
2018-12-25T05:24:00.289Z,46.14
2018-12-25T05:25:00.283Z,46.52
2018-12-25T05:26:00.251Z,46.61
2018-12-25T05:27:00.233Z,46.99
2018-12-25T05:28:00.210Z,47.37
2018-12-25T05:29:00.396Z,47.47
2018-12-25T05:30:00.208Z,46.99
2018-12-25T05:31:00.152Z,47.37
2018-12-25T05:32:00.141Z,47.09
2018-12-25T05:32:59.870Z,46.9
2018-12-25T05:34:00.108Z,46.9
2018-12-25T05:34:59.835Z,47.37
2018-12-25T05:36:00.066Z,47.09
2018-12-25T05:37:00.047Z,47.37
2018-12-25T05:38:00.028Z,48.32
2018-12-25T05:39:00.003Z,48.5
2018-12-25T05:39:59.990Z,48.79
2018-12-25T05:40:59.973Z,49.07
2018-12-25T05:41:59.947Z,50.4
2018-12-25T05:42:59.933Z,49.92
2018-12-25T05:43:59.917Z,50.87
2018-12-25T05:45:00.179Z,50.87
2018-12-25T05:45:59.874Z,51.53
2018-12-25T05:46:59.608Z,52
2018-12-25T05:47:59.838Z,52.48
2018-12-25T05:48:59.914Z,53.05
2018-12-25T05:49:59.798Z,53.14
2018-12-25T05:50:59.532Z,52.95
2018-12-25T05:51:59.770Z,53.14
2018-12-25T05:52:59.741Z,53.23
2018-12-25T05:53:59.729Z,53.89
2018-12-25T05:54:59.713Z,53.61
2018-12-25T05:55:59.691Z,53.8
2018-12-25T05:56:59.670Z,54.08
2018-12-25T05:57:59.651Z,54.65
2018-12-25T05:58:59.633Z,54.46
2018-12-25T05:59:59.617Z,55.5
2018-12-25T06:00:59.591Z,56.73
2018-12-25T06:01:59.576Z,57.3
2018-12-25T06:02:59.557Z,57.77
2018-12-25T06:03:59.545Z,58.15
2018-12-25T06:04:59.519Z,57.87
2018-12-25T06:05:59.502Z,58.81
2018-12-25T06:06:59.489Z,59.28
2018-12-25T06:07:59.464Z,59.35
2018-12-25T06:08:59.447Z,59.47
2018-12-25T06:09:59.427Z,60.42
2018-12-25T06:10:59.408Z,60.52
2018-12-25T06:11:59.390Z,61.08
2018-12-25T06:12:59.372Z,61.83
2018-12-25T06:13:59.353Z,62.69
2018-12-25T06:14:59.331Z,63.32
2018-12-25T06:15:59.314Z,63.45
2018-12-25T06:16:59.297Z,64.11
2018-12-25T06:17:59.274Z,64.11
2018-12-25T06:18:59.259Z,64.2
2018-12-25T06:19:58.989Z,64.39
2018-12-25T06:20:59.218Z,64.86
2018-12-25T06:21:59.200Z,65.34
2018-12-25T06:22:59.180Z,65.53
2018-12-25T06:23:59.165Z,67
2018-12-25T06:24:59.145Z,67.13
2018-12-25T06:25:58.874Z,67.41
2018-12-25T06:26:59.111Z,67.47
2018-12-25T06:27:59.091Z,67.79
2018-12-25T06:28:58.823Z,67.98
2018-12-25T06:29:59.050Z,68.17
2018-12-25T06:30:59.039Z,68.04
2018-12-25T06:31:59.016Z,67.85
2018-12-25T06:32:58.996Z,68.27
2018-12-25T06:33:58.977Z,69.31
2018-12-25T06:34:58.958Z,69.46
2018-12-25T06:35:58.940Z,69.59
2018-12-25T06:36:58.671Z,69.97
2018-12-25T06:37:58.901Z,70.44
2018-12-25T06:38:58.885Z,70.88
2018-12-25T06:39:58.859Z,70.88
2018-12-25T06:40:58.842Z,71.3
2018-12-25T06:41:58.823Z,71.35
2018-12-25T06:42:58.923Z,71.39
2018-12-25T06:43:58.789Z,71.26
2018-12-25T06:44:58.769Z,71.26
2018-12-25T06:45:58.750Z,71.2
2018-12-25T06:46:58.728Z,71.2
2018-12-25T06:47:58.465Z,71.77
2018-12-25T06:48:58.695Z,71.64
2018-12-25T06:49:58.675Z,71.35
2018-12-25T06:51:06.099Z,71.39
2018-12-25T06:51:58.644Z,72.14
2018-12-25T06:52:58.617Z,71.67
2018-12-25T06:53:58.602Z,72.02
2018-12-25T06:54:58.333Z,72.77
2018-12-25T06:55:58.567Z,73.09
2018-12-25T06:56:58.544Z,73.56
2018-12-25T06:57:58.528Z,73.24
2018-12-25T06:58:58.508Z,72.99
2018-12-25T06:59:58.488Z,73.33
2018-12-25T07:00:58.465Z,73.18
2018-12-25T07:01:58.449Z,73.94
2018-12-25T07:02:58.473Z,73.28
2018-12-25T07:03:58.414Z,73.28
2018-12-25T07:04:58.397Z,73.56
2018-12-25T07:05:58.371Z,73.56
2018-12-25T07:06:58.353Z,73.56
2018-12-25T07:07:58.090Z,73.94
2018-12-25T07:08:58.430Z,73.37
2018-12-25T07:09:58.298Z,73.85
2018-12-25T07:10:58.281Z,73.66
2018-12-25T07:11:58.264Z,72.62
2018-12-25T07:12:58.241Z,72.52
2018-12-25T07:13:58.223Z,72.62
2018-12-25T07:14:58.207Z,73.28
2018-12-25T07:15:57.940Z,73.56
2018-12-25T07:16:58.165Z,73.94
2018-12-25T07:17:58.151Z,73.75
2018-12-25T07:18:58.133Z,74.32
2018-12-25T07:19:58.107Z,74.13
2018-12-25T07:20:58.097Z,74.98
2018-12-25T07:21:58.083Z,74.79
2018-12-25T07:22:58.057Z,74.88
2018-12-25T07:23:58.033Z,74.69
2018-12-25T07:24:58.011Z,74.98
2018-12-25T07:25:58.005Z,74.98
2018-12-25T07:26:57.980Z,74.98
2018-12-25T07:27:57.961Z,74.32
2018-12-25T07:28:57.946Z,74.41
2018-12-25T07:29:57.929Z,74.13
2018-12-25T07:30:57.908Z,74.88
2018-12-25T07:31:57.891Z,76.02
2018-12-25T07:32:57.865Z,77.34
2018-12-25T07:33:57.846Z,78.48
2018-12-25T07:34:57.827Z,78.48
2018-12-25T07:35:57.812Z,79.14
2018-12-25T07:36:57.788Z,79.05
2018-12-25T07:37:57.774Z,78.95
2018-12-25T07:38:57.503Z,78.39
2018-12-25T07:39:57.736Z,78.48
2018-12-25T07:40:57.716Z,78.67
2018-12-25T07:41:57.695Z,78.1
2018-12-25T07:42:57.683Z,77.82
2018-12-25T07:43:57.413Z,78.48
2018-12-25T07:44:57.644Z,77.63
2018-12-25T07:45:57.626Z,78.2
2018-12-25T07:46:57.603Z,79.61
2018-12-25T07:47:57.588Z,80.18
2018-12-25T07:48:57.566Z,80.27
2018-12-25T07:49:57.549Z,80.27
2018-12-25T07:50:57.525Z,80.08
2018-12-25T07:51:57.523Z,79.33
2018-12-25T07:52:57.490Z,79.61
2018-12-25T07:53:57.545Z,80.08
2018-12-25T07:54:57.453Z,79.99
2018-12-25T07:55:57.440Z,80.18
2018-12-25T07:56:57.419Z,79.9
2018-12-25T07:57:57.150Z,79.52
2018-12-25T07:58:57.385Z,78.76
2018-12-25T07:59:57.362Z,78.95
2018-12-25T08:00:57.344Z,79.43
2018-12-25T08:01:57.331Z,80.75
2018-12-25T08:02:57.304Z,80.94
2018-12-25T08:03:57.293Z,80.46
2018-12-25T08:04:57.023Z,79.99
2018-12-25T08:05:57.251Z,79.9
2018-12-25T08:06:57.230Z,79.43
2018-12-25T08:07:57.214Z,78.86
2018-12-25T08:08:57.196Z,78.58
2018-12-25T08:09:57.175Z,78.48
2018-12-25T08:10:57.156Z,77.63
2018-12-25T08:11:57.134Z,76.59
2018-12-25T08:12:57.125Z,77.15
2018-12-25T08:13:57.103Z,76.59
2018-12-25T08:14:56.833Z,78.01
2018-12-25T08:15:57.068Z,78.2
2018-12-25T08:16:57.052Z,77.82
2018-12-25T08:17:56.779Z,78.39
2018-12-25T08:18:57.076Z,78.58
2018-12-25T08:19:56.993Z,78.86
2018-12-25T08:20:56.971Z,79.52
2018-12-25T08:21:56.963Z,79.52
2018-12-25T08:23:04.901Z,79.43
2018-12-25T08:23:56.914Z,79.99
2018-12-25T08:24:56.905Z,81.7
2018-12-25T08:25:56.876Z,82.83
2018-12-25T08:26:56.863Z,84.06
2018-12-25T08:27:56.845Z,84.34
2018-12-25T08:28:56.834Z,84.91
2018-12-25T08:29:56.804Z,84.53
2018-12-25T08:30:56.786Z,84.44
2018-12-25T08:31:56.522Z,84.53
2018-12-25T08:32:56.753Z,83.78
2018-12-25T08:33:56.730Z,83.97
2018-12-25T08:34:56.711Z,84.34
2018-12-25T08:35:56.695Z,84.34
2018-12-25T08:36:56.681Z,84.06
2018-12-25T08:37:56.672Z,84.63
2018-12-25T08:38:56.643Z,84.06
2018-12-25T08:39:56.624Z,83.21
2018-12-25T08:40:56.605Z,82.54
2018-12-25T08:41:56.583Z,82.35
2018-12-25T08:42:56.570Z,83.4
2018-12-25T08:43:56.550Z,83.97
2018-12-25T08:44:56.528Z,84.81
2018-12-25T08:45:56.514Z,85.1
2018-12-25T08:46:56.493Z,85.1
2018-12-25T08:47:56.471Z,85
2018-12-25T08:48:56.216Z,84.34
2018-12-25T08:49:56.442Z,85.1
2018-12-25T08:50:56.421Z,85.76
2018-12-25T08:51:56.406Z,85.66
2018-12-25T08:52:56.386Z,87.46
2018-12-25T08:53:56.370Z,88.69
2018-12-25T08:54:56.348Z,88.69
2018-12-25T08:55:56.330Z,88.22
2018-12-25T08:56:56.310Z,88.03
2018-12-25T08:57:57.377Z,88.79
2018-12-25T08:58:56.027Z,88.79
2018-12-25T08:59:56.252Z,89.73
2018-12-25T09:00:55.991Z,89.87
2018-12-25T09:01:56.221Z,91.2
2018-12-25T09:02:56.197Z,90.49
2018-12-25T09:03:56.181Z,92.52
2018-12-25T09:04:56.271Z,92.57
2018-12-25T09:05:56.151Z,92.14
2018-12-25T09:06:55.877Z,92.8
2018-12-25T09:07:56.110Z,93.85
2018-12-25T09:08:55.845Z,93.85
2018-12-25T09:09:56.075Z,94.51
2018-12-25T09:10:56.060Z,94.7
2018-12-25T09:11:56.039Z,96.31
2018-12-25T09:12:56.023Z,95.59
2018-12-25T09:13:55.998Z,95.17
2018-12-25T09:14:55.989Z,93.7
2018-12-25T09:15:55.971Z,93.28
2018-12-25T09:16:55.949Z,93.37
2018-12-25T09:17:55.926Z,93.37
2018-12-25T09:18:55.910Z,95.07
2018-12-25T09:19:55.901Z,96.4
2018-12-25T09:20:55.629Z,95.17
2018-12-25T09:21:55.857Z,94.51
2018-12-25T09:22:55.834Z,94.04
2018-12-25T09:23:55.571Z,93.37
2018-12-25T09:24:55.800Z,93.66
2018-12-25T09:25:55.785Z,93.47
2018-12-25T09:26:55.767Z,92.9
2018-12-25T09:27:55.753Z,93.18
2018-12-25T09:28:55.727Z,92.05
2018-12-25T09:29:55.713Z,91.86
2018-12-25T09:30:55.697Z,91.29
2018-12-25T09:31:55.424Z,91.1
2018-12-25T09:32:55.659Z,90.82
2018-12-25T09:33:55.641Z,93.56
2018-12-25T09:34:55.621Z,95.17
2018-12-25T09:35:55.605Z,95.93
2018-12-25T09:36:55.588Z,98.48
2018-12-25T09:37:55.566Z,98.39
2018-12-25T09:38:55.552Z,96.5
2018-12-25T09:39:55.534Z,96.69
2018-12-25T09:40:56.342Z,96.59
2018-12-25T09:41:55.504Z,96.21
2018-12-25T09:42:55.474Z,96.69
2018-12-25T09:43:55.473Z,95.93
2018-12-25T09:44:55.446Z,98.77
2018-12-25T09:45:55.423Z,98.01
2018-12-25T09:46:55.406Z,98.39
2018-12-25T09:47:55.143Z,98.29
2018-12-25T09:48:55.370Z,96.4
2018-12-25T09:49:55.350Z,97.34
2018-12-25T09:50:55.334Z,98.01
2018-12-25T09:51:56.820Z,98.29
2018-12-25T09:52:55.303Z,98.48
2018-12-25T09:53:55.283Z,97.25
2018-12-25T09:54:55.267Z,99.99
2018-12-25T09:55:55.244Z,99.71
2018-12-25T09:56:54.981Z,99.24
2018-12-25T09:57:55.208Z,98.77
2018-12-25T09:58:55.190Z,96.88
2018-12-25T09:59:55.181Z,95.93
2018-12-25T10:00:55.161Z,95.83
2018-12-25T10:01:55.137Z,95.17
2018-12-25T10:02:55.118Z,94.89
2018-12-25T10:03:55.100Z,95.36
2018-12-25T10:04:56.571Z,96.69
2018-12-25T10:05:55.067Z,94.7
2018-12-25T10:06:55.049Z,93.28
2018-12-25T10:07:55.031Z,93.66
2018-12-25T10:08:55.021Z,92.71
2018-12-25T10:09:54.995Z,93.56
2018-12-25T10:10:54.977Z,94.98
2018-12-25T10:11:54.964Z,95.45
2018-12-25T10:12:54.696Z,94.98
2018-12-25T10:13:54.925Z,93.85
2018-12-25T10:14:54.908Z,93.56
2018-12-25T10:15:54.885Z,93.37
2018-12-25T10:16:54.870Z,94.7
2018-12-25T10:17:54.851Z,95.55
2018-12-25T10:18:54.839Z,96.59
2018-12-25T10:19:54.680Z,96.88
2018-12-25T10:20:54.803Z,96.97
2018-12-25T10:22:02.719Z,98.2
2018-12-25T10:22:54.765Z,98.86
2018-12-25T10:23:54.746Z,98.48
2018-12-25T10:24:54.504Z,96.4
2018-12-25T10:25:56.088Z,96.02
2018-12-25T10:26:54.693Z,96.4
2018-12-25T10:27:54.731Z,96.4
2018-12-25T10:28:54.656Z,96.02
2018-12-25T10:29:54.642Z,95.07
2018-12-25T10:30:54.622Z,96.21
2018-12-25T10:31:54.601Z,96.21
2018-12-25T10:32:54.586Z,96.31
2018-12-25T10:33:54.567Z,95.17
2018-12-25T10:34:54.550Z,96.5
2018-12-25T10:35:54.530Z,95.26
2018-12-25T10:36:54.513Z,95.26
2018-12-25T10:37:54.502Z,94.7
2018-12-25T10:38:54.488Z,92.71
2018-12-25T10:39:54.458Z,92.43
2018-12-25T10:40:54.444Z,91.58
2018-12-25T10:41:54.424Z,91.2
2018-12-25T10:42:54.508Z,90.82
2018-12-25T10:43:54.141Z,92.9
2018-12-25T10:44:54.369Z,94.32
2018-12-25T10:45:54.351Z,95.17
2018-12-25T10:46:54.340Z,94.32
2018-12-25T10:47:54.366Z,94.32
2018-12-25T10:48:54.300Z,94.42
2018-12-25T10:49:54.284Z,94.04
2018-12-25T10:50:54.264Z,92.43
2018-12-25T10:51:54.246Z,91.29
2018-12-25T10:52:54.231Z,94.04
2018-12-25T10:53:54.216Z,94.7
2018-12-25T10:54:54.193Z,93.37
2018-12-25T10:55:53.925Z,92.9
2018-12-25T10:56:54.153Z,91.58
2018-12-25T10:57:54.135Z,90.16
2018-12-25T10:58:54.117Z,89.59
2018-12-25T10:59:54.126Z,90.72
2018-12-25T11:00:54.086Z,90.16
2018-12-25T11:01:54.067Z,88.93
2018-12-25T11:02:54.050Z,88.55
2018-12-25T11:03:54.027Z,88.93
2018-12-25T11:04:54.013Z,89.5
2018-12-25T11:05:53.994Z,89.21
2018-12-25T11:06:53.976Z,89.21
2018-12-25T11:07:53.958Z,88.64
2018-12-25T11:08:53.945Z,87.88
2018-12-25T11:09:53.927Z,86.85
2018-12-25T11:10:53.904Z,85.61
2018-12-25T11:11:53.889Z,84.48
2018-12-25T11:12:53.864Z,83.72
2018-12-25T11:13:53.850Z,82.68
2018-12-25T11:14:53.830Z,81.36
2018-12-25T11:15:53.813Z,80.69
2018-12-25T11:16:53.800Z,79.56
2018-12-25T11:17:53.780Z,78.99
2018-12-25T11:18:53.759Z,78.33
2018-12-25T11:19:53.743Z,77.1
2018-12-25T11:20:53.721Z,78.05
2018-12-25T11:21:53.708Z,78.52
2018-12-25T11:22:53.687Z,77.95
2018-12-25T11:23:53.668Z,79.28
2018-12-25T11:24:53.653Z,79.75
2018-12-25T11:25:53.627Z,79.09
2018-12-25T11:26:53.647Z,78.61
2018-12-25T11:27:53.594Z,77.2
2018-12-25T11:28:53.579Z,76.63
2018-12-25T11:29:53.565Z,75.49
2018-12-25T11:30:53.544Z,75.31
2018-12-25T11:31:53.528Z,75.4
2018-12-25T11:32:53.506Z,76.53
2018-12-25T11:33:53.488Z,77.48
2018-12-25T11:34:53.470Z,77.48
2018-12-25T11:35:53.453Z,77.67
2018-12-25T11:36:53.435Z,77.67
2018-12-25T11:37:53.418Z,76.63
2018-12-25T11:38:53.152Z,76.34
2018-12-25T11:39:53.138Z,76.15
2018-12-25T11:40:53.364Z,75.02
2018-12-25T11:41:53.343Z,73.5
2018-12-25T11:42:53.322Z,72.28
2018-12-25T11:43:53.314Z,70.95
2018-12-25T11:44:53.293Z,70.39
2018-12-25T11:45:53.268Z,68.59
2018-12-25T11:46:53.256Z,67.74
2018-12-25T11:47:52.990Z,67.45
2018-12-25T11:48:53.020Z,67.26
2018-12-25T11:49:53.198Z,67.36
2018-12-25T11:50:53.177Z,69.72
2018-12-25T11:51:53.161Z,72.66
2018-12-25T11:52:53.144Z,73.32
2018-12-25T11:53:53.129Z,72.56
2018-12-25T11:54:53.107Z,71.52
2018-12-25T11:55:53.087Z,71.04
2018-12-25T11:56:53.075Z,70.2
2018-12-25T11:57:53.054Z,70.67
2018-12-25T11:58:53.034Z,69.72
2018-12-25T11:59:53.021Z,69.91
2018-12-25T12:00:53.000Z,69.63
2018-12-25T12:01:52.985Z,68.49
2018-12-25T12:02:53.084Z,68.49
2018-12-25T12:03:52.942Z,67.45
2018-12-25T12:04:52.927Z,65.94
2018-12-25T12:05:52.910Z,64.52
2018-12-25T12:06:52.888Z,63.67
2018-12-25T12:07:52.872Z,63.2
2018-12-25T12:08:52.952Z,62.72
2018-12-25T12:09:52.836Z,62.06
2018-12-25T12:10:52.818Z,61.3
2018-12-25T12:11:52.554Z,59.6
2018-12-25T12:12:52.786Z,58.56
2018-12-25T12:13:52.768Z,57.23
2018-12-25T12:14:52.746Z,56.76
2018-12-25T12:15:52.725Z,57.04
2018-12-25T12:16:52.706Z,57.8
2018-12-25T12:17:52.686Z,58.65
2018-12-25T12:18:52.670Z,59.12
2018-12-25T12:19:52.654Z,59.98
2018-12-25T12:20:52.634Z,60.45
2018-12-25T12:21:52.615Z,61.02
2018-12-25T12:22:52.603Z,61.11
2018-12-25T12:23:52.584Z,60.74
2018-12-25T12:24:52.565Z,60.83
2018-12-25T12:25:52.548Z,64.04
2018-12-25T12:26:52.526Z,65.18
2018-12-25T12:27:52.507Z,65.56
2018-12-25T12:28:52.493Z,66.79
2018-12-25T12:29:52.477Z,69.25
2018-12-25T12:30:52.454Z,71.52
2018-12-25T12:31:52.435Z,73.13
2018-12-25T12:32:52.170Z,74.55
2018-12-25T12:33:52.400Z,77.01
2018-12-25T12:34:52.395Z,77.67
2018-12-25T12:35:52.371Z,79.37
2018-12-25T12:36:52.350Z,80.41
2018-12-25T12:37:52.327Z,80.13
2018-12-25T12:38:52.311Z,80.13
2018-12-25T12:39:52.316Z,79.56
2018-12-25T12:40:52.278Z,78.52
2018-12-25T12:41:52.264Z,76.53
2018-12-25T12:42:52.242Z,77.01
2018-12-25T12:43:51.976Z,76.44
2018-12-25T12:44:52.207Z,76.25
2018-12-25T12:45:52.187Z,74.93
2018-12-25T12:46:52.172Z,75.68
2018-12-25T12:47:52.153Z,76.15
2018-12-25T12:48:52.136Z,77.86
2018-12-25T12:49:51.868Z,78.99
2018-12-25T12:50:52.102Z,77.58
2018-12-25T12:51:52.080Z,76.53
2018-12-25T12:52:52.066Z,76.53
2018-12-25T12:53:52.044Z,75.49
2018-12-25T12:54:51.778Z,74.93